createdAt,value
2022-10-17T00:00:32.310Z,24.45
2022-10-17T00:02:59.465Z,24.00
2022-10-17T00:05:26.641Z,23.05
2022-10-17T00:07:54.941Z,23.48
2022-10-17T00:10:22.519Z,19.95
2022-10-17T00:12:51.233Z,34.95
2022-10-17T00:15:20.249Z,23.77
2022-10-17T00:17:47.318Z,22.58
2022-10-17T00:20:15.691Z,21.23
2022-10-17T00:22:43.259Z,24.75
2022-10-17T00:25:11.437Z,25.60
2022-10-17T00:27:40.860Z,19.92
2022-10-17T00:30:11.517Z,22.25
2022-10-17T00:32:38.825Z,22.75
2022-10-17T00:35:06.904Z,23.63
2022-10-17T00:37:34.374Z,22.83
2022-10-17T00:40:01.926Z,21.45
2022-10-17T00:42:29.160Z,24.85
2022-10-17T00:45:07.695Z,26.20
2022-10-17T00:47:35.993Z,23.60
2022-10-17T00:50:05.040Z,21.88
2022-10-17T00:52:32.908Z,22.75
2022-10-17T00:55:16.663Z,25.02
2022-10-17T00:57:45.753Z,23.55
2022-10-17T01:00:14.297Z,25.50
2022-10-17T01:02:41.287Z,24.02
2022-10-17T01:05:09.294Z,25.45
2022-10-17T01:07:37.509Z,25.48
2022-10-17T01:10:06.407Z,22.92
2022-10-17T01:12:45.692Z,24.40
2022-10-17T01:15:27.256Z,21.30
2022-10-17T01:18:32.894Z,23.10
2022-10-17T01:21:08.735Z,23.40
2022-10-17T01:23:44.565Z,23.98
2022-10-17T01:26:19.271Z,25.20
2022-10-17T01:28:51.501Z,24.58
2022-10-17T01:31:25.040Z,26.63
2022-10-17T01:34:01.381Z,25.67
2022-10-17T01:36:28.430Z,21.98
2022-10-17T01:39:06.988Z,23.67
2022-10-17T01:41:52.926Z,23.27
2022-10-17T01:44:57.872Z,21.88
2022-10-17T01:47:32.150Z,23.23
2022-10-17T01:50:08.949Z,22.77
2022-10-17T01:52:59.983Z,28.02
2022-10-17T01:55:35.562Z,21.45
2022-10-17T01:58:10.026Z,23.15
2022-10-17T02:00:38.056Z,25.90
2022-10-17T02:03:07.352Z,23.15
2022-10-17T02:05:40.329Z,24.13
2022-10-17T02:08:08.364Z,29.00
2022-10-17T02:10:51.287Z,24.25
2022-10-17T02:13:48.911Z,23.50
2022-10-17T02:16:21.953Z,23.83
2022-10-17T02:19:16.986Z,28.03
2022-10-17T02:22:04.040Z,25.48
2022-10-17T02:24:45.763Z,27.53
2022-10-17T02:27:17.341Z,29.63
2022-10-17T02:29:49.468Z,24.43
2022-10-17T02:32:34.263Z,27.43
2022-10-17T02:35:03.442Z,25.43
2022-10-17T02:37:32.454Z,27.43
2022-10-17T02:40:02.159Z,29.63
2022-10-17T02:42:30.822Z,24.20
2022-10-17T02:45:01.493Z,26.87
2022-10-17T02:47:57.433Z,27.23
2022-10-17T02:50:31.335Z,28.43
2022-10-17T02:53:08.940Z,31.30
2022-10-17T02:55:42.717Z,26.70
2022-10-17T02:58:20.295Z,31.87
2022-10-17T03:00:48.666Z,26.20
2022-10-17T03:03:33.851Z,25.53
2022-10-17T03:06:00.863Z,26.80
2022-10-17T03:08:28.898Z,27.80
2022-10-17T03:10:55.992Z,26.83
2022-10-17T03:13:22.822Z,26.43
2022-10-17T03:15:49.710Z,24.30
2022-10-17T03:18:16.852Z,31.03
2022-10-17T03:20:44.005Z,27.93
2022-10-17T03:23:11.138Z,29.50
2022-10-17T03:25:38.352Z,26.48
2022-10-17T03:28:05.691Z,27.67
2022-10-17T03:30:32.974Z,32.27
2022-10-17T03:33:01.257Z,28.50
2022-10-17T03:35:28.315Z,29.53
2022-10-17T03:37:57.900Z,27.97
2022-10-17T03:40:24.920Z,26.57
2022-10-17T03:42:52.052Z,30.70
2022-10-17T03:45:19.187Z,26.30
2022-10-17T03:47:46.017Z,30.80
2022-10-17T03:50:12.882Z,27.00
2022-10-17T03:52:39.687Z,30.37
2022-10-17T03:55:06.995Z,32.40
2022-10-17T03:57:36.186Z,30.63
2022-10-17T04:00:04.698Z,32.07
2022-10-17T04:02:31.869Z,27.60
2022-10-17T04:04:58.831Z,30.40
2022-10-17T04:09:53.185Z,30.10
2022-10-17T04:12:21.224Z,29.97
2022-10-17T04:14:48.065Z,30.73
2022-10-17T04:17:14.914Z,29.97
2022-10-17T04:19:41.764Z,29.33
2022-10-17T04:22:09.907Z,30.20
2022-10-17T04:24:37.942Z,27.23
2022-10-17T04:27:05.125Z,29.17
2022-10-17T04:29:32.174Z,27.90
2022-10-17T04:31:59.045Z,30.10
2022-10-17T04:34:25.887Z,33.40
2022-10-17T04:36:52.741Z,30.73
2022-10-17T04:39:19.576Z,27.30
2022-10-17T04:41:46.516Z,28.17
2022-10-17T04:44:13.984Z,34.43
2022-10-17T04:46:41.126Z,30.93
2022-10-17T04:49:09.157Z,31.90
2022-10-17T04:51:36.287Z,32.30
2022-10-17T04:54:03.488Z,29.90
2022-10-17T04:56:30.669Z,34.60
2022-10-17T04:58:59.678Z,32.03
2022-10-17T05:01:27.087Z,32.40
2022-10-17T05:03:56.014Z,36.37
2022-10-17T05:06:25.680Z,36.17
2022-10-17T05:08:52.768Z,32.93
2022-10-17T05:11:26.088Z,32.37
2022-10-17T05:13:55.834Z,34.63
2022-10-17T05:16:23.604Z,32.03
2022-10-17T05:18:55.527Z,35.80
2022-10-17T05:21:24.734Z,34.17
2022-10-17T05:23:52.282Z,33.53
2022-10-17T05:26:20.581Z,30.57
2022-10-17T05:28:47.667Z,31.17
2022-10-17T05:31:14.902Z,35.87
2022-10-17T05:33:41.808Z,33.17
2022-10-17T05:36:09.550Z,29.10
2022-10-17T05:38:36.606Z,31.70
2022-10-17T05:41:06.303Z,32.13
2022-10-17T05:43:34.165Z,34.80
2022-10-17T05:46:06.130Z,31.47
2022-10-17T05:48:33.270Z,33.60
2022-10-17T05:51:02.563Z,33.83
2022-10-17T05:53:34.152Z,30.13
2022-10-17T05:56:03.896Z,32.93
2022-10-17T05:58:49.286Z,32.03
2022-10-17T06:01:17.286Z,32.97
2022-10-17T06:03:44.187Z,32.53
2022-10-17T06:06:13.006Z,30.50
2022-10-17T06:08:41.122Z,30.77
2022-10-17T06:11:10.199Z,29.77
2022-10-17T06:13:38.465Z,29.33
2022-10-17T06:16:06.241Z,27.90
2022-10-17T06:18:33.528Z,29.60
2022-10-17T06:21:05.773Z,27.27
2022-10-17T06:23:33.506Z,31.53
2022-10-17T06:26:02.486Z,28.83
2022-10-17T06:28:29.659Z,29.03
2022-10-17T06:30:56.915Z,28.40
2022-10-17T06:33:23.891Z,28.57
2022-10-17T06:35:55.666Z,27.40
2022-10-17T06:38:23.327Z,24.87
2022-10-17T06:40:50.437Z,27.50
2022-10-17T06:43:17.440Z,27.80
2022-10-17T06:45:46.391Z,27.33
2022-10-17T06:48:13.818Z,25.03
2022-10-17T06:50:40.987Z,23.87
2022-10-17T06:53:08.129Z,27.53
2022-10-17T06:55:35.306Z,24.40
2022-10-17T06:58:02.142Z,24.45
2022-10-17T07:00:29.248Z,27.70
2022-10-17T07:02:56.365Z,22.10
2022-10-17T07:05:23.189Z,22.17
2022-10-17T07:07:51.694Z,24.67
2022-10-17T07:10:18.978Z,24.90
2022-10-17T07:12:45.972Z,24.95
2022-10-17T07:15:13.325Z,22.55
2022-10-17T07:17:40.362Z,23.70
2022-10-17T07:20:07.733Z,19.97
2022-10-17T07:22:34.580Z,24.77
2022-10-17T07:25:01.546Z,25.05
2022-10-17T07:27:29.955Z,22.80
2022-10-17T07:29:57.272Z,21.77
2022-10-17T07:32:24.142Z,24.50
2022-10-17T07:34:50.976Z,22.67
2022-10-17T07:37:17.917Z,21.50
2022-10-17T07:39:44.959Z,25.88
2022-10-17T07:42:11.913Z,22.45
2022-10-17T07:44:38.941Z,25.80
2022-10-17T07:47:05.892Z,24.73
2022-10-17T07:49:32.998Z,33.85
2022-10-17T07:51:59.907Z,19.55
2022-10-17T07:54:26.949Z,22.20
2022-10-17T07:56:53.861Z,20.63
2022-10-17T07:59:20.937Z,22.15
2022-10-17T08:01:47.987Z,20.30
2022-10-17T08:04:16.819Z,19.38
2022-10-17T08:06:43.916Z,23.05
2022-10-17T08:09:10.878Z,24.95
2022-10-17T08:11:37.835Z,19.08
2022-10-17T08:14:05.817Z,16.52
2022-10-17T08:16:32.966Z,19.50
2022-10-17T08:19:00.734Z,16.40
2022-10-17T08:21:27.912Z,16.90
2022-10-17T08:23:55.357Z,19.90
2022-10-17T08:26:22.471Z,16.90
2022-10-17T08:28:50.270Z,22.23
2022-10-17T08:31:19.362Z,17.10
2022-10-17T08:33:47.942Z,28.77
2022-10-17T08:36:20.005Z,19.88
2022-10-17T08:38:52.439Z,18.60
2022-10-17T08:41:38.402Z,22.38
2022-10-17T08:44:20.194Z,18.10
2022-10-17T08:46:49.510Z,19.55
2022-10-17T08:49:51.387Z,19.23
2022-10-17T08:52:24.070Z,18.10
2022-10-17T08:54:51.448Z,19.40
2022-10-17T08:57:18.646Z,17.58
2022-10-17T08:59:50.547Z,15.77
2022-10-17T09:02:46.694Z,17.75
2022-10-17T09:05:33.147Z,16.98
2022-10-17T09:08:31.826Z,17.30
2022-10-17T09:11:22.194Z,19.08
2022-10-17T09:13:59.434Z,17.73
2022-10-17T09:16:39.144Z,17.02
2022-10-17T09:19:11.837Z,16.08
2022-10-17T09:21:56.478Z,16.45
2022-10-17T09:24:56.674Z,19.20
2022-10-17T09:27:25.057Z,20.95
2022-10-17T09:30:01.523Z,15.20
2022-10-17T09:32:29.188Z,14.55
2022-10-17T09:34:56.277Z,16.88
2022-10-17T09:37:30.062Z,18.55
2022-10-17T09:39:57.020Z,17.15
2022-10-17T09:42:26.976Z,17.80
2022-10-17T09:45:05.019Z,18.77
2022-10-17T09:47:35.086Z,19.73
2022-10-17T09:50:02.316Z,16.27
2022-10-17T09:52:40.616Z,18.48
2022-10-17T09:55:25.612Z,52.70
2022-10-17T09:58:01.764Z,22.25
2022-10-17T10:00:38.722Z,18.13
2022-10-17T10:03:08.718Z,16.08
2022-10-17T10:05:35.679Z,15.55
2022-10-17T10:08:05.685Z,20.08
2022-10-17T10:10:33.401Z,17.70
2022-10-17T10:13:14.129Z,17.88
2022-10-17T10:15:46.038Z,17.00
2022-10-17T10:18:33.205Z,20.02
2022-10-17T10:21:21.774Z,21.02
2022-10-17T10:24:05.633Z,18.65
2022-10-17T10:26:49.466Z,19.85
2022-10-17T10:29:32.681Z,18.70
2022-10-17T10:32:10.861Z,13.85
2022-10-17T10:34:45.395Z,18.02
2022-10-17T10:37:23.020Z,18.15
2022-10-17T10:40:08.045Z,18.70
2022-10-17T10:42:39.506Z,22.90
2022-10-17T10:45:43.276Z,19.98
2022-10-17T10:48:27.805Z,17.90
2022-10-17T10:51:05.415Z,17.88
2022-10-17T10:53:41.595Z,17.02
2022-10-17T10:56:15.600Z,19.23
2022-10-17T10:58:57.785Z,18.27
2022-10-17T11:01:34.201Z,16.83
2022-10-17T11:04:36.881Z,17.40
2022-10-17T11:07:10.386Z,16.95
2022-10-17T11:09:49.467Z,18.67
2022-10-17T11:12:33.476Z,23.08
2022-10-17T11:15:22.823Z,19.70
2022-10-17T11:18:03.778Z,17.52
2022-10-17T11:20:43.586Z,16.70
2022-10-17T11:23:42.707Z,17.88
2022-10-17T11:26:35.737Z,17.50
2022-10-17T11:29:07.938Z,17.00
2022-10-17T11:31:39.454Z,19.55
2022-10-17T11:34:25.811Z,16.33
2022-10-17T11:36:57.021Z,16.88
2022-10-17T11:39:29.498Z,18.73
2022-10-17T11:42:21.995Z,18.25
2022-10-17T11:44:52.577Z,15.30
2022-10-17T11:47:50.099Z,16.02
2022-10-17T11:53:28.327Z,16.98
2022-10-17T11:55:58.893Z,15.40
2022-10-17T11:58:37.709Z,18.73
2022-10-17T12:01:24.937Z,17.25
2022-10-17T12:03:57.622Z,18.65
2022-10-17T12:06:52.348Z,16.60
2022-10-17T12:09:57.593Z,16.23
2022-10-17T12:12:30.658Z,14.52
2022-10-17T12:15:23.445Z,18.25
2022-10-17T12:17:56.053Z,16.05
2022-10-17T12:20:25.998Z,16.27
2022-10-17T12:23:11.188Z,28.73
2022-10-17T12:26:03.320Z,16.10
2022-10-17T12:28:38.192Z,15.98
2022-10-17T12:31:32.510Z,13.80
2022-10-17T12:34:03.071Z,15.95
2022-10-17T12:36:29.889Z,17.52
2022-10-17T12:39:02.448Z,18.73
2022-10-17T12:41:41.380Z,14.52
2022-10-17T12:44:14.522Z,18.02
2022-10-17T12:46:43.024Z,18.30
2022-10-17T12:49:41.942Z,18.88
2022-10-17T12:52:31.199Z,18.48
2022-10-17T12:55:12.057Z,18.70
2022-10-17T12:57:55.688Z,14.40
2022-10-17T13:00:59.561Z,18.95
2022-10-17T13:03:33.563Z,15.73
2022-10-17T13:06:04.298Z,21.77
2022-10-17T13:08:34.869Z,16.83
2022-10-17T13:11:02.821Z,14.38
2022-10-17T13:13:42.629Z,16.80
2022-10-17T13:16:09.654Z,16.25
2022-10-17T13:18:37.039Z,19.75
2022-10-17T13:21:15.603Z,15.25
2022-10-17T13:23:42.559Z,17.02
2022-10-17T13:26:15.118Z,16.02
2022-10-17T13:28:43.470Z,17.55
2022-10-17T13:31:30.065Z,16.17
2022-10-17T13:34:00.073Z,19.65
2022-10-17T13:36:28.444Z,16.48
2022-10-17T13:38:55.379Z,15.88
2022-10-17T13:41:36.586Z,15.93
2022-10-17T13:44:11.579Z,19.23
2022-10-17T13:46:40.074Z,15.82
2022-10-17T13:49:31.745Z,15.95
2022-10-17T13:52:00.613Z,20.13
2022-10-17T13:54:33.563Z,17.13
2022-10-17T13:57:01.671Z,16.83
2022-10-17T13:59:39.709Z,15.32
2022-10-17T14:02:14.027Z,16.73
2022-10-17T14:05:11.759Z,15.55
2022-10-17T14:08:05.848Z,16.20
2022-10-17T14:10:33.086Z,15.70
2022-10-17T14:13:01.015Z,17.58
2022-10-17T14:15:30.134Z,20.13
2022-10-17T14:18:02.298Z,14.80
2022-10-17T14:21:12.759Z,17.25
2022-10-17T14:23:39.039Z,18.13
2022-10-17T14:26:07.407Z,15.07
2022-10-17T14:28:36.010Z,21.05
2022-10-17T14:31:15.926Z,15.40
2022-10-17T14:33:50.674Z,19.75
2022-10-17T14:36:19.130Z,22.40
2022-10-17T14:38:48.885Z,19.38
2022-10-17T14:41:41.762Z,22.05
2022-10-17T14:44:21.715Z,18.58
2022-10-17T14:46:53.912Z,18.65
2022-10-17T14:49:33.159Z,18.45
2022-10-17T14:52:19.065Z,15.20
2022-10-17T14:54:50.189Z,20.25
2022-10-17T14:57:34.512Z,22.23
2022-10-17T15:00:01.351Z,20.80
2022-10-17T15:02:30.323Z,18.90
2022-10-17T15:04:57.636Z,23.17
2022-10-17T15:07:24.566Z,26.10
2022-10-17T15:09:53.256Z,24.98
2022-10-17T15:12:23.096Z,29.58
2022-10-17T15:14:50.722Z,26.50
2022-10-17T15:17:21.161Z,23.95
2022-10-17T15:19:48.598Z,25.05
2022-10-17T15:22:16.273Z,24.15
2022-10-17T15:24:43.338Z,30.15
2022-10-17T15:27:32.734Z,28.33
2022-10-17T15:29:59.863Z,29.85
2022-10-17T15:32:26.730Z,27.13
2022-10-17T15:34:53.589Z,27.02
2022-10-17T15:37:23.106Z,26.40
2022-10-17T15:39:54.897Z,30.73
2022-10-17T15:42:26.466Z,27.83
2022-10-17T15:44:53.736Z,28.77
2022-10-17T15:47:28.252Z,22.10
2022-10-17T15:49:55.888Z,27.02
2022-10-17T15:52:23.856Z,25.95
2022-10-17T15:54:50.929Z,27.83
2022-10-17T15:57:24.494Z,20.70
2022-10-17T15:59:52.672Z,21.13
2022-10-17T16:02:20.980Z,22.90
2022-10-17T16:04:49.330Z,21.73
2022-10-17T16:07:16.688Z,23.95
2022-10-17T16:09:43.628Z,23.27
2022-10-17T16:12:24.914Z,25.25
2022-10-17T16:14:51.744Z,20.52
2022-10-17T16:17:18.818Z,24.13
2022-10-17T16:19:45.706Z,21.65
2022-10-17T16:22:27.723Z,20.42
2022-10-17T16:24:58.949Z,23.98
2022-10-17T16:27:26.731Z,24.52
2022-10-17T16:29:55.919Z,27.52
2022-10-17T16:32:23.032Z,23.20
2022-10-17T16:34:50.209Z,23.98
2022-10-17T16:37:17.331Z,27.52
2022-10-17T16:39:49.121Z,24.73
2022-10-17T16:42:16.211Z,22.98
2022-10-17T16:44:43.078Z,23.05
2022-10-17T16:47:10.141Z,23.67
2022-10-17T16:49:40.360Z,25.90
2022-10-17T16:52:11.915Z,28.30
2022-10-17T16:54:38.808Z,29.70
2022-10-17T16:57:06.162Z,24.90
2022-10-17T16:59:33.188Z,29.63
2022-10-17T17:01:59.977Z,24.58
2022-10-17T17:04:26.976Z,26.40
2022-10-17T17:06:53.843Z,26.52
2022-10-17T17:09:20.792Z,27.88
2022-10-17T17:11:47.732Z,31.88
2022-10-17T17:14:14.927Z,28.05
2022-10-17T17:16:43.391Z,31.92
2022-10-17T17:19:16.940Z,38.85
2022-10-17T17:21:50.029Z,32.45
2022-10-17T17:24:21.571Z,30.23
2022-10-17T17:26:53.856Z,27.90
2022-10-17T17:29:21.510Z,26.23
2022-10-17T17:31:48.724Z,27.75
2022-10-17T17:34:18.105Z,26.92
2022-10-17T17:36:46.193Z,24.10
2022-10-17T17:39:14.213Z,24.38
2022-10-17T17:41:42.274Z,24.23
2022-10-17T17:44:15.566Z,27.13
2022-10-17T17:46:43.936Z,24.42
2022-10-17T17:49:11.847Z,28.83
2022-10-17T17:51:39.113Z,25.05
2022-10-17T17:54:08.151Z,24.70
2022-10-17T17:56:35.676Z,23.65
2022-10-17T17:59:03.120Z,24.88
2022-10-17T18:01:37.922Z,22.55
2022-10-17T18:04:08.545Z,18.83
2022-10-17T18:06:36.667Z,19.35
2022-10-17T18:09:04.583Z,22.00
2022-10-17T18:11:31.931Z,19.45
2022-10-17T18:14:03.158Z,22.95
2022-10-17T18:16:31.643Z,24.70
2022-10-17T18:19:02.750Z,20.25
2022-10-17T18:21:34.325Z,18.00
2022-10-17T18:24:01.420Z,19.77
2022-10-17T18:26:28.390Z,19.13
2022-10-17T18:28:55.497Z,22.40
2022-10-17T18:31:35.487Z,19.48
2022-10-17T18:34:04.633Z,22.92
2022-10-17T18:36:33.583Z,24.63
2022-10-17T18:39:01.149Z,20.02
2022-10-17T18:41:28.413Z,25.83
2022-10-17T18:43:56.371Z,27.98
2022-10-17T18:46:25.460Z,25.38
2022-10-17T18:48:52.709Z,24.85
2022-10-17T18:51:22.096Z,24.98
2022-10-17T18:53:54.194Z,19.35
2022-10-17T18:56:21.995Z,20.30
2022-10-17T18:58:49.375Z,23.48
2022-10-17T19:01:24.976Z,22.08
2022-10-17T19:03:54.401Z,21.20
2022-10-17T19:06:23.752Z,19.98
2022-10-17T19:08:50.863Z,20.60
2022-10-17T19:11:23.067Z,21.83
2022-10-17T19:13:50.957Z,21.50
2022-10-17T19:16:24.128Z,18.50
2022-10-17T19:18:57.473Z,18.33
2022-10-17T19:21:25.000Z,17.17
2022-10-17T19:23:55.448Z,18.85
2022-10-17T19:26:23.681Z,17.33
2022-10-17T19:28:53.501Z,18.77
2022-10-17T19:31:26.515Z,17.70
2022-10-17T19:33:55.472Z,18.73
2022-10-17T19:36:27.595Z,20.10
2022-10-17T19:38:58.133Z,16.80
2022-10-17T19:41:25.087Z,18.60
2022-10-17T19:43:51.931Z,14.70
2022-10-17T19:46:21.485Z,16.65
2022-10-17T19:48:49.581Z,20.05
2022-10-17T19:51:18.215Z,16.73
2022-10-17T19:53:45.699Z,16.45
2022-10-17T19:56:13.007Z,18.85
2022-10-17T19:58:46.626Z,17.23
2022-10-17T20:01:20.326Z,16.98
2022-10-17T20:03:47.710Z,21.45
2022-10-17T20:06:15.219Z,15.88
2022-10-17T20:08:42.492Z,16.45
2022-10-17T20:11:12.643Z,19.63
2022-10-17T20:13:39.998Z,20.27
2022-10-17T20:16:08.815Z,17.83
2022-10-17T20:18:35.715Z,22.33
2022-10-17T20:21:08.540Z,18.02
2022-10-17T20:23:36.189Z,19.08
2022-10-17T20:26:25.366Z,19.48
2022-10-17T20:28:53.640Z,14.57
2022-10-17T20:31:21.128Z,15.50
2022-10-17T20:33:48.084Z,15.02
2022-10-17T20:36:16.691Z,20.88
2022-10-17T20:38:43.558Z,17.48
2022-10-17T20:41:10.951Z,14.45
2022-10-17T20:43:38.206Z,18.27
2022-10-17T20:46:22.842Z,15.30
2022-10-17T20:48:54.707Z,17.20
2022-10-17T20:51:21.830Z,22.27
2022-10-17T20:53:49.373Z,18.27
2022-10-17T20:56:21.913Z,14.27
2022-10-17T20:58:53.668Z,12.95
2022-10-17T21:01:21.870Z,18.92
2022-10-17T21:03:49.636Z,18.25
2022-10-17T21:06:17.841Z,21.65
2022-10-17T21:08:46.274Z,15.70
2022-10-17T21:11:18.656Z,16.95
2022-10-17T21:13:46.907Z,15.63
2022-10-17T21:16:18.890Z,16.30
2022-10-17T21:18:46.208Z,14.57
2022-10-17T21:21:26.753Z,13.55
2022-10-17T21:23:56.215Z,18.52
2022-10-17T21:26:23.816Z,12.85
2022-10-17T21:28:50.988Z,13.57
2022-10-17T21:31:21.145Z,12.95
2022-10-17T21:33:52.901Z,14.38
2022-10-17T21:36:21.050Z,16.85
2022-10-17T21:38:49.263Z,14.13
2022-10-17T21:41:19.456Z,13.00
2022-10-17T21:43:46.996Z,14.88
2022-10-17T21:46:18.041Z,12.77
2022-10-17T21:48:46.752Z,11.73
2022-10-17T21:51:16.539Z,13.02
2022-10-17T21:53:43.996Z,14.40
2022-10-17T21:56:13.773Z,13.40
2022-10-17T21:58:41.122Z,11.18
2022-10-17T22:01:13.797Z,15.45
2022-10-17T22:03:45.808Z,13.75
2022-10-17T22:09:06.618Z,11.15
2022-10-17T22:11:35.251Z,11.88
2022-10-17T22:14:05.094Z,12.73
2022-10-17T22:16:32.329Z,15.00
2022-10-17T22:19:04.840Z,15.57
2022-10-17T22:21:34.544Z,11.68
2022-10-17T22:24:04.001Z,12.50
2022-10-17T22:26:32.323Z,14.05
2022-10-17T22:28:59.782Z,12.20
2022-10-17T22:31:27.080Z,14.18
2022-10-17T22:33:54.120Z,13.35
2022-10-17T22:36:21.357Z,12.02
2022-10-17T22:38:48.485Z,11.15
2022-10-17T22:41:15.515Z,12.13
2022-10-17T22:43:42.678Z,13.52
2022-10-17T22:46:13.030Z,13.20
2022-10-17T22:48:40.164Z,12.82
2022-10-17T22:51:07.392Z,15.25
2022-10-17T22:53:35.261Z,15.70
2022-10-17T22:56:10.967Z,12.40
2022-10-17T22:58:38.795Z,12.10
2022-10-17T23:01:07.428Z,14.00
2022-10-17T23:03:35.447Z,14.48
2022-10-17T23:06:02.855Z,15.20
2022-10-17T23:08:30.471Z,12.10
2022-10-17T23:10:57.890Z,12.38
2022-10-17T23:13:24.967Z,13.18
2022-10-17T23:15:54.244Z,13.07
2022-10-17T23:18:22.478Z,15.00
2022-10-17T23:20:49.937Z,12.10
2022-10-17T23:23:17.738Z,12.60
2022-10-17T23:25:45.051Z,11.45
2022-10-17T23:28:12.556Z,13.00
2022-10-17T23:30:39.901Z,10.75
2022-10-17T23:33:07.229Z,10.77
2022-10-17T23:35:35.502Z,12.25
2022-10-17T23:38:02.800Z,16.13
2022-10-17T23:40:29.845Z,11.77
2022-10-17T23:42:56.856Z,13.50
2022-10-17T23:45:24.094Z,13.30
2022-10-17T23:47:52.144Z,13.15
2022-10-17T23:50:19.213Z,12.80
2022-10-17T23:52:46.143Z,15.40
2022-10-17T23:55:14.293Z,13.15
2022-10-17T23:57:41.383Z,12.55
